createdAt,value
2023-03-22T00:01:23.074Z,6.40
2023-03-22T00:03:50.965Z,6.43
2023-03-22T00:06:18.050Z,8.53
2023-03-22T00:08:45.493Z,5.13
2023-03-22T00:11:12.888Z,8.40
2023-03-22T00:13:39.633Z,6.10
2023-03-22T00:16:06.851Z,6.30
2023-03-22T00:18:33.656Z,8.27
2023-03-22T00:21:00.723Z,9.50
2023-03-22T00:23:28.592Z,4.50
2023-03-22T00:25:55.641Z,6.57
2023-03-22T00:28:22.326Z,4.03
2023-03-22T00:30:59.792Z,5.50
2023-03-22T00:33:31.158Z,5.20
2023-03-22T00:36:00.914Z,4.77
2023-03-22T00:38:42.601Z,4.60
2023-03-22T00:41:16.376Z,5.23
2023-03-22T00:43:45.976Z,5.30
2023-03-22T00:46:13.794Z,7.10
2023-03-22T00:48:40.780Z,6.93
2023-03-22T00:51:08.579Z,4.77
2023-03-22T00:53:37.053Z,4.40
2023-03-22T00:56:05.675Z,4.60
2023-03-22T00:58:42.202Z,8.27
2023-03-22T01:01:09.396Z,5.30
2023-03-22T01:03:36.242Z,4.50
2023-03-22T01:06:03.665Z,4.67
2023-03-22T01:08:33.327Z,4.70
2023-03-22T01:11:01.265Z,7.13
2023-03-22T01:13:28.938Z,3.60
2023-03-22T01:15:55.971Z,5.23
2023-03-22T01:18:23.328Z,5.00
2023-03-22T01:20:51.107Z,9.63
2023-03-22T01:23:17.793Z,4.63
2023-03-22T01:25:44.466Z,8.27
2023-03-22T01:28:11.122Z,4.37
2023-03-22T01:30:40.818Z,3.93
2023-03-22T01:33:08.211Z,4.90
2023-03-22T01:35:36.353Z,4.80
2023-03-22T01:38:04.608Z,3.93
2023-03-22T01:40:34.634Z,8.00
2023-03-22T01:43:01.960Z,5.80
2023-03-22T01:45:42.068Z,3.37
2023-03-22T01:48:27.073Z,3.60
2023-03-22T01:51:03.330Z,7.20
2023-03-22T01:53:38.714Z,3.67
2023-03-22T01:56:07.768Z,4.97
2023-03-22T01:58:37.977Z,4.30
2023-03-22T02:01:08.638Z,3.40
2023-03-22T02:03:59.202Z,5.30
2023-03-22T02:06:26.981Z,5.53
2023-03-22T02:09:12.536Z,4.87
2023-03-22T02:11:43.118Z,5.53
2023-03-22T02:14:52.087Z,4.70
2023-03-22T02:18:26.632Z,5.93
2023-03-22T02:21:44.934Z,3.60
2023-03-22T02:24:39.189Z,11.50
2023-03-22T02:27:35.872Z,4.13
2023-03-22T02:30:13.377Z,4.53
2023-03-22T02:33:12.217Z,4.03
2023-03-22T02:35:46.402Z,4.43
2023-03-22T02:38:24.751Z,3.27
2023-03-22T02:40:56.595Z,3.73
2023-03-22T02:43:38.351Z,3.60
2023-03-22T02:46:16.728Z,3.30
2023-03-22T02:48:58.461Z,4.97
2023-03-22T02:51:47.880Z,7.80
2023-03-22T02:54:35.562Z,3.10
2023-03-22T02:57:33.737Z,3.43
2023-03-22T03:00:02.744Z,3.70
2023-03-22T03:02:32.422Z,3.90
2023-03-22T03:05:00.949Z,3.50
2023-03-22T03:07:28.937Z,3.40
2023-03-22T03:09:56.384Z,3.17
2023-03-22T03:12:28.165Z,4.13
2023-03-22T03:14:56.463Z,2.90
2023-03-22T03:17:23.137Z,2.93
2023-03-22T03:20:01.469Z,7.90
2023-03-22T03:22:57.471Z,2.90
2023-03-22T03:25:38.371Z,2.90
2023-03-22T03:28:38.203Z,4.57
2023-03-22T03:31:07.885Z,3.43
2023-03-22T03:33:36.385Z,3.50
2023-03-22T03:36:11.307Z,4.00
2023-03-22T03:38:45.264Z,3.83
2023-03-22T03:41:21.230Z,3.77
2023-03-22T03:43:51.393Z,3.60
2023-03-22T03:46:18.066Z,3.47
2023-03-22T03:48:48.562Z,3.67
2023-03-22T03:51:15.477Z,3.30
2023-03-22T03:53:42.598Z,3.53
2023-03-22T03:56:10.434Z,3.10
2023-03-22T03:58:41.961Z,3.10
2023-03-22T04:01:09.065Z,2.73
2023-03-22T04:03:36.355Z,2.97
2023-03-22T04:06:11.836Z,4.20
2023-03-22T04:08:45.553Z,2.70
2023-03-22T04:11:14.834Z,3.20
2023-03-22T04:13:42.738Z,3.97
2023-03-22T04:16:13.948Z,5.10
2023-03-22T04:18:40.736Z,4.83
2023-03-22T04:21:09.115Z,5.00
2023-03-22T04:23:46.846Z,3.97
2023-03-22T04:26:14.098Z,7.00
2023-03-22T04:28:52.288Z,6.37
2023-03-22T04:31:19.353Z,4.57
2023-03-22T04:34:06.625Z,4.60
2023-03-22T04:36:47.528Z,5.97
2023-03-22T04:39:35.047Z,4.87
2023-03-22T04:42:20.794Z,4.67
2023-03-22T04:44:50.727Z,4.40
2023-03-22T04:47:18.192Z,4.07
2023-03-22T04:49:45.314Z,4.30
2023-03-22T04:52:12.767Z,5.23
2023-03-22T04:54:43.418Z,4.53
2023-03-22T04:57:11.789Z,4.30
2023-03-22T04:59:43.012Z,4.93
2023-03-22T05:02:10.316Z,4.50
2023-03-22T05:04:41.638Z,4.77
2023-03-22T05:07:27.319Z,8.10
2023-03-22T05:09:56.993Z,7.27
2023-03-22T05:12:23.896Z,6.53
2023-03-22T05:14:56.054Z,4.60
2023-03-22T05:17:27.197Z,4.37
2023-03-22T05:19:56.481Z,5.50
2023-03-22T05:22:23.084Z,5.47
2023-03-22T05:24:51.765Z,4.90
2023-03-22T05:27:31.158Z,7.03
2023-03-22T05:30:05.490Z,6.03
2023-03-22T05:33:04.085Z,5.10
2023-03-22T05:35:38.591Z,5.63
2023-03-22T05:38:07.407Z,7.90
2023-03-22T05:40:39.695Z,6.90
2023-03-22T05:43:06.480Z,6.47
2023-03-22T05:45:36.960Z,6.40
2023-03-22T05:48:23.596Z,7.27
2023-03-22T05:50:50.554Z,21.70
2023-03-22T05:53:17.650Z,32.60
2023-03-22T05:56:00.658Z,63.63
2023-03-22T05:58:30.810Z,43.40
2023-03-22T06:01:04.152Z,32.77
2023-03-22T06:03:46.050Z,46.03
2023-03-22T06:06:20.533Z,41.67
2023-03-22T06:09:07.034Z,34.70
2023-03-22T06:11:41.571Z,23.37
2023-03-22T06:14:08.443Z,19.10
2023-03-22T06:16:55.519Z,15.00
2023-03-22T06:19:22.257Z,10.97
2023-03-22T06:21:49.156Z,10.53
2023-03-22T06:24:17.404Z,8.93
2023-03-22T06:26:45.316Z,17.23
2023-03-22T06:29:12.280Z,16.00
2023-03-22T06:31:39.401Z,13.97
2023-03-22T06:34:07.926Z,17.37
2023-03-22T06:36:42.320Z,16.67
2023-03-22T06:39:16.566Z,13.70
2023-03-22T06:41:44.936Z,11.63
2023-03-22T06:44:11.868Z,16.57
2023-03-22T06:46:51.005Z,12.87
2023-03-22T06:49:36.187Z,13.37
2023-03-22T06:52:03.879Z,11.80
2023-03-22T06:54:31.173Z,12.23
2023-03-22T06:56:58.082Z,10.20
2023-03-22T06:59:24.754Z,11.90
2023-03-22T07:01:51.654Z,12.90
2023-03-22T07:04:20.028Z,14.47
2023-03-22T07:06:48.296Z,12.87
2023-03-22T07:09:15.428Z,14.07
2023-03-22T07:11:42.266Z,12.13
2023-03-22T07:14:09.485Z,14.77
2023-03-22T07:16:59.073Z,10.50
2023-03-22T07:19:28.167Z,8.00
2023-03-22T07:21:55.517Z,9.87
2023-03-22T07:24:23.158Z,9.87
2023-03-22T07:26:50.457Z,8.57
2023-03-22T07:29:21.877Z,8.20
2023-03-22T07:31:49.209Z,7.87
2023-03-22T07:34:22.206Z,8.30
2023-03-22T07:37:11.917Z,6.93
2023-03-22T07:39:40.714Z,7.53
2023-03-22T07:42:07.436Z,6.67
2023-03-22T07:45:00.517Z,6.90
2023-03-22T07:47:40.317Z,8.03
2023-03-22T07:50:27.461Z,7.33
2023-03-22T07:52:56.355Z,6.77
2023-03-22T07:55:23.082Z,6.47
2023-03-22T07:57:49.771Z,7.50
2023-03-22T08:00:17.265Z,7.20
2023-03-22T08:02:50.003Z,7.60
2023-03-22T08:05:54.987Z,7.80
2023-03-22T08:08:21.680Z,8.07
2023-03-22T08:10:49.449Z,6.70
2023-03-22T08:13:16.380Z,8.67
2023-03-22T08:15:43.412Z,8.83
2023-03-22T08:18:10.769Z,6.33
2023-03-22T08:20:40.067Z,6.20
2023-03-22T08:23:15.956Z,8.03
2023-03-22T08:26:09.675Z,9.47
2023-03-22T08:28:36.823Z,6.13
2023-03-22T08:31:13.197Z,7.23
2023-03-22T08:33:41.169Z,5.83
2023-03-22T08:36:10.549Z,5.07
2023-03-22T08:38:45.325Z,5.67
2023-03-22T08:41:15.893Z,8.60
2023-03-22T08:43:43.064Z,6.83
2023-03-22T08:46:10.165Z,7.20
2023-03-22T08:48:37.984Z,5.73
2023-03-22T08:51:10.662Z,6.33
2023-03-22T08:53:58.777Z,5.03
2023-03-22T08:56:44.721Z,5.40
2023-03-22T08:59:34.958Z,7.63
2023-03-22T09:02:27.724Z,7.80
2023-03-22T09:04:56.137Z,5.93
2023-03-22T09:07:24.205Z,6.00
2023-03-22T09:10:02.111Z,5.90
2023-03-22T09:12:29.750Z,7.43
2023-03-22T09:14:56.998Z,5.30
2023-03-22T09:17:25.883Z,5.33
2023-03-22T09:20:02.761Z,5.00
2023-03-22T09:22:37.256Z,6.90
2023-03-22T09:25:04.416Z,4.73
2023-03-22T09:27:32.570Z,5.70
2023-03-22T09:30:00.144Z,4.83
2023-03-22T09:32:26.862Z,8.30
2023-03-22T09:34:59.534Z,4.47
2023-03-22T09:37:34.262Z,6.00
2023-03-22T09:40:00.998Z,4.67
2023-03-22T09:42:38.695Z,3.47
2023-03-22T09:45:13.529Z,2.93
2023-03-22T09:47:47.245Z,2.73
2023-03-22T09:50:44.746Z,4.70
2023-03-22T09:53:14.561Z,3.00
2023-03-22T09:56:03.949Z,2.80
2023-03-22T09:58:34.306Z,3.87
2023-03-22T10:01:09.829Z,2.83
2023-03-22T10:03:54.883Z,3.50
2023-03-22T10:06:25.021Z,2.13
2023-03-22T10:09:11.001Z,1.73
2023-03-22T10:11:55.815Z,2.10
2023-03-22T10:14:46.169Z,1.20
2023-03-22T10:17:17.089Z,2.60
2023-03-22T10:19:57.860Z,4.57
2023-03-22T10:22:30.177Z,2.50
2023-03-22T10:24:58.017Z,1.83
2023-03-22T10:27:26.748Z,2.10
2023-03-22T10:30:23.084Z,2.00
2023-03-22T10:33:00.674Z,1.47
2023-03-22T10:35:27.929Z,1.57
2023-03-22T10:37:57.933Z,2.30
2023-03-22T10:40:33.016Z,1.60
2023-03-22T10:43:08.141Z,2.80
2023-03-22T10:45:36.308Z,2.10
2023-03-22T10:48:14.246Z,3.00
2023-03-22T10:50:44.408Z,2.00
2023-03-22T10:53:46.580Z,1.90
2023-03-22T10:56:16.824Z,1.47
2023-03-22T10:58:43.522Z,3.07
2023-03-22T11:01:24.188Z,2.17
2023-03-22T11:03:52.387Z,2.33
2023-03-22T11:06:32.895Z,1.67
2023-03-22T11:09:02.217Z,2.63
2023-03-22T11:11:38.455Z,2.60
2023-03-22T11:14:11.892Z,1.80
2023-03-22T11:16:47.807Z,2.37
2023-03-22T11:19:25.868Z,2.23
2023-03-22T11:21:54.111Z,2.03
2023-03-22T11:24:22.224Z,2.33
2023-03-22T11:27:28.824Z,3.27
2023-03-22T11:30:19.999Z,3.17
2023-03-22T11:32:46.878Z,2.40
2023-03-22T11:35:28.260Z,3.30
2023-03-22T11:37:56.110Z,2.10
2023-03-22T11:40:36.941Z,3.13
2023-03-22T11:43:06.582Z,2.73
2023-03-22T11:45:37.713Z,2.47
2023-03-22T11:48:15.351Z,3.47
2023-03-22T11:50:44.560Z,3.23
2023-03-22T11:53:22.444Z,4.37
2023-03-22T11:55:51.580Z,2.30
2023-03-22T11:58:55.359Z,3.10
2023-03-22T12:01:51.721Z,2.37
2023-03-22T12:04:24.678Z,2.07
2023-03-22T12:06:55.166Z,2.70
2023-03-22T12:09:44.907Z,3.00
2023-03-22T12:12:19.677Z,2.33
2023-03-22T12:15:05.156Z,6.40
2023-03-22T12:17:40.928Z,3.40
2023-03-22T12:20:14.030Z,2.50
2023-03-22T12:22:51.924Z,2.30
2023-03-22T12:25:27.177Z,2.83
2023-03-22T12:27:58.587Z,2.57
2023-03-22T12:30:33.792Z,2.43
2023-03-22T12:33:16.390Z,2.47
2023-03-22T12:35:46.244Z,2.63
2023-03-22T12:38:48.805Z,2.80
2023-03-22T12:41:25.321Z,5.17
2023-03-22T12:44:14.268Z,3.80
2023-03-22T12:46:55.956Z,2.40
2023-03-22T12:49:36.095Z,2.30
2023-03-22T12:52:29.780Z,2.20
2023-03-22T12:55:01.402Z,2.93
2023-03-22T12:57:28.406Z,1.87
2023-03-22T13:00:00.375Z,3.00
2023-03-22T13:02:34.313Z,3.30
2023-03-22T13:05:09.273Z,2.60
2023-03-22T13:07:48.263Z,1.87
2023-03-22T13:10:29.879Z,1.83
2023-03-22T13:13:42.237Z,1.77
2023-03-22T13:16:08.977Z,1.87
2023-03-22T13:18:35.782Z,2.20
2023-03-22T13:21:09.111Z,4.00
2023-03-22T13:23:35.869Z,1.60
2023-03-22T13:26:04.832Z,1.40
2023-03-22T13:28:37.247Z,2.67
2023-03-22T13:31:05.289Z,2.33
2023-03-22T13:33:35.475Z,3.30
2023-03-22T13:36:23.323Z,4.60
2023-03-22T13:39:07.388Z,1.87
2023-03-22T13:41:34.708Z,2.40
2023-03-22T13:44:25.057Z,2.10
2023-03-22T13:46:56.051Z,2.60
2023-03-22T13:49:38.646Z,1.80
2023-03-22T13:52:08.319Z,3.57
2023-03-22T13:54:47.768Z,4.17
2023-03-22T13:57:39.073Z,1.80
2023-03-22T14:00:20.602Z,2.70
2023-03-22T14:02:50.448Z,2.30
2023-03-22T14:05:23.360Z,2.40
2023-03-22T14:07:56.705Z,2.50
2023-03-22T14:10:48.827Z,1.97
2023-03-22T14:13:26.278Z,1.83
2023-03-22T14:16:04.372Z,2.97
2023-03-22T14:18:34.426Z,2.10
2023-03-22T14:21:07.609Z,3.00
